Time,TemperatureF,DewpointF,PressureIn,WindDirection,WindDirectionDegrees,WindSpeedMPH,WindSpeedGustMPH,Humidity,HourlyPrecipIn,Conditions,Clouds,dailyrainin,SoftwareType,DateUTC
2013-02-23 00:00:00,48.3,46.4,30.17,SSW,213,1.0,1.0,93,0.00,,,0.32,Wunderground v.1.15,2013-02-23 05:00:00,
2013-02-23 00:02:00,48.3,46.4,30.17,SSW,204,1.0,1.0,93,0.00,,,0.32,Wunderground v.1.15,2013-02-23 05:02:00,
2013-02-23 00:08:00,48.1,45.9,30.17,ENE,60,0.0,1.0,92,0.00,,,0.00,Wunderground v.1.15,2013-02-23 05:08:00,
2013-02-23 00:14:00,48.2,46.0,30.17,NW,326,1.0,2.0,92,0.00,,,0.00,Wunderground v.1.15,2013-02-23 05:14:00,
2013-02-23 00:16:00,48.2,45.7,30.17,ESE,103,1.0,2.0,91,0.00,,,0.00,Wunderground v.1.15,2013-02-23 05:16:00,
2013-02-23 00:22:00,48.1,45.6,30.16,SW,217,1.0,1.0,91,0.00,,,0.00,Wunderground v.1.15,2013-02-23 05:22:00,
2013-02-23 00:28:00,48.3,45.5,30.16,West,259,1.0,2.0,90,0.00,,,0.00,Wunderground v.1.15,2013-02-23 05:28:00,
2013-02-23 00:34:00,48.1,45.6,30.16,South,186,1.0,2.0,91,0.00,,,0.00,Wunderground v.1.15,2013-02-23 05:34:00,
2013-02-23 00:40:00,47.3,44.8,30.16,South,186,1.0,1.0,91,0.00,,,0.00,Wunderground v.1.15,2013-02-23 05:40:00,
2013-02-23 00:46:00,46.5,44.3,30.17,SE,130,1.0,2.0,92,0.00,,,0.00,Wunderground v.1.15,2013-02-23 05:46:00,
2013-02-23 00:52:00,46.2,44.0,30.17,SSW,209,2.0,2.0,92,0.00,,,0.00,Wunderground v.1.15,2013-02-23 05:52:00,
2013-02-23 00:58:00,46.1,44.2,30.17,South,190,2.0,2.0,93,0.00,,,0.00,Wunderground v.1.15,2013-02-23 05:58:00,
2013-02-23 01:04:00,45.8,43.6,30.16,SSW,203,2.0,6.0,92,0.00,,,0.00,Wunderground v.1.15,2013-02-23 06:04:00,
2013-02-23 01:10:00,45.8,43.3,30.16,South,181,3.0,3.0,91,0.00,,,0.00,Wunderground v.1.15,2013-02-23 06:10:00,
2013-02-23 01:16:00,45.6,43.4,30.15,SW,231,3.0,3.0,92,0.00,,,0.00,Wunderground v.1.15,2013-02-23 06:16:00,
2013-02-23 01:22:00,45.3,43.1,30.15,SSW,199,2.0,5.0,92,0.00,,,0.00,Wunderground v.1.15,2013-02-23 06:22:00,
2013-02-23 01:28:00,45.1,42.9,30.15,SSW,210,1.0,5.0,92,0.00,,,0.00,Wunderground v.1.15,2013-02-23 06:28:00,
2013-02-23 01:34:00,45.3,42.8,30.15,SSW,208,1.0,2.0,91,0.00,,,0.00,Wunderground v.1.15,2013-02-23 06:34:00,
2013-02-23 01:40:00,45.6,43.1,30.15,SW,217,1.0,3.0,91,0.00,,,0.00,Wunderground v.1.15,2013-02-23 06:40:00,
2013-02-23 01:46:00,45.9,43.1,30.15,ESE,113,1.0,3.0,90,0.00,,,0.00,Wunderground v.1.15,2013-02-23 06:46:00,
2013-02-23 01:52:00,46.1,43.3,30.15,SE,133,1.0,2.0,90,0.00,,,0.00,Wunderground v.1.15,2013-02-23 06:52:00,
2013-02-23 01:58:00,46.6,43.2,30.15,SE,124,1.0,2.0,88,0.00,,,0.00,Wunderground v.1.15,2013-02-23 06:58:00,
2013-02-23 02:04:00,46.8,43.1,30.15,SW,229,1.0,1.0,87,0.00,,,0.00,Wunderground v.1.15,2013-02-23 07:04:00,
2013-02-23 02:10:00,46.9,43.2,30.15,SW,214,0.0,2.0,87,0.00,,,0.00,Wunderground v.1.15,2013-02-23 07:10:00,
2013-02-23 02:16:00,46.8,43.7,30.15,SSW,210,1.0,2.0,89,0.00,,,0.00,Wunderground v.1.15,2013-02-23 07:16:00,
2013-02-23 02:22:00,46.3,43.5,30.15,SE,131,1.0,2.0,90,0.00,,,0.01,Wunderground v.1.15,2013-02-23 07:22:00,
2013-02-23 02:28:00,46.0,43.8,30.14,East,96,2.0,2.0,92,0.07,,,0.02,Wunderground v.1.15,2013-02-23 07:28:00,
2013-02-23 02:34:00,45.8,43.6,30.14,NNW,333,1.0,1.0,92,0.07,,,0.03,Wunderground v.1.15,2013-02-23 07:34:00,
2013-02-23 02:40:00,45.9,43.7,30.15,SW,219,1.0,1.0,92,0.13,,,0.04,Wunderground v.1.15,2013-02-23 07:40:00,
2013-02-23 02:46:00,45.9,43.7,30.15,SW,236,1.0,3.0,92,0.10,,,0.05,Wunderground v.1.15,2013-02-23 07:46:00,
2013-02-23 02:52:00,45.5,43.6,30.15,WSW,241,1.0,1.0,93,0.16,,,0.06,Wunderground v.1.15,2013-02-23 07:52:00,
2013-02-23 02:58:00,45.1,43.5,30.15,SE,146,0.0,1.0,94,0.09,,,0.07,Wunderground v.1.15,2013-02-23 07:58:00,
2013-02-23 03:04:00,44.9,43.6,30.14,East,84,0.0,1.0,95,0.09,,,0.08,Wunderground v.1.15,2013-02-23 08:04:00,
2013-02-23 03:10:00,44.9,43.6,30.13,WNW,292,0.0,1.0,95,0.18,,,0.10,Wunderground v.1.15,2013-02-23 08:10:00,
2013-02-23 03:18:00,44.9,43.8,30.12,East,92,1.0,1.0,96,0.07,,,0.10,Wunderground v.1.15,2013-02-23 08:18:00,
2013-02-23 03:24:00,44.8,43.7,30.12,NE,54,0.0,1.0,96,0.07,,,0.11,Wunderground v.1.15,2013-02-23 08:24:00,
2013-02-23 03:30:00,44.8,43.7,30.11,North,9,0.0,1.0,96,0.05,,,0.11,Wunderground v.1.15,2013-02-23 08:30:00,
2013-02-23 03:36:00,44.8,43.7,30.11,North,8,0.0,1.0,96,0.05,,,0.12,Wunderground v.1.15,2013-02-23 08:36:00,
2013-02-23 03:42:00,44.7,43.6,30.11,North,8,0.0,1.0,96,0.07,,,0.13,Wunderground v.1.15,2013-02-23 08:42:00,
2013-02-23 03:48:00,44.5,43.4,30.11,North,6,0.0,1.0,96,0.07,,,0.13,Wunderground v.1.15,2013-02-23 08:48:00,
2013-02-23 03:54:00,44.4,43.6,30.11,North,352,1.0,2.0,97,0.04,,,0.13,Wunderground v.1.15,2013-02-23 08:54:00,
2013-02-23 04:00:00,44.5,43.7,30.11,North,352,1.0,1.0,97,0.00,,,0.13,Wunderground v.1.15,2013-02-23 09:00:00,
2013-02-23 04:06:00,44.6,43.5,30.10,NNW,342,1.0,1.0,96,0.00,,,0.14,Wunderground v.1.15,2013-02-23 09:06:00,
2013-02-23 04:12:00,44.7,43.6,30.10,North,356,1.0,1.0,96,0.00,,,0.14,Wunderground v.1.15,2013-02-23 09:12:00,
2013-02-23 04:18:00,44.5,43.4,30.10,NNW,329,0.0,1.0,96,0.00,,,0.14,Wunderground v.1.15,2013-02-23 09:18:00,
2013-02-23 04:24:00,44.4,43.3,30.10,WSW,252,0.0,1.0,96,0.00,,,0.14,Wunderground v.1.15,2013-02-23 09:24:00,
2013-02-23 04:30:00,44.4,43.3,30.10,WSW,252,0.0,1.0,96,0.00,,,0.15,Wunderground v.1.15,2013-02-23 09:30:00,
2013-02-23 04:36:00,44.4,43.3,30.08,WSW,252,0.0,1.0,96,0.00,,,0.15,Wunderground v.1.15,2013-02-23 09:36:00,
2013-02-23 04:42:00,44.3,43.2,30.07,WSW,252,0.0,1.0,96,0.00,,,0.15,Wunderground v.1.15,2013-02-23 09:42:00,
2013-02-23 04:48:00,44.0,42.9,30.06,North,352,1.0,1.0,96,0.04,,,0.16,Wunderground v.1.15,2013-02-23 09:48:00,
2013-02-23 04:54:00,43.7,42.9,30.06,North,353,1.0,1.0,97,0.04,,,0.16,Wunderground v.1.15,2013-02-23 09:54:00,
2013-02-23 05:00:00,43.6,42.8,30.06,NNE,13,1.0,1.0,97,0.00,,,0.16,Wunderground v.1.15,2013-02-23 10:00:00,
2013-02-23 05:06:00,43.5,42.7,30.07,NE,37,1.0,1.0,97,0.00,,,0.16,Wunderground v.1.15,2013-02-23 10:06:00,
2013-02-23 05:12:00,43.5,42.7,30.08,North,352,1.0,1.0,97,0.00,,,0.16,Wunderground v.1.15,2013-02-23 10:12:00,
2013-02-23 05:18:00,43.6,43.1,30.07,NW,323,0.0,1.0,98,0.00,,,0.16,Wunderground v.1.15,2013-02-23 10:18:00,
2013-02-23 05:24:00,43.7,43.2,30.07,WSW,250,0.0,2.0,98,0.00,,,0.16,Wunderground v.1.15,2013-02-23 10:24:00,
2013-02-23 05:30:00,43.9,43.1,30.07,SW,226,1.0,2.0,97,0.00,,,0.17,Wunderground v.1.15,2013-02-23 10:30:00,
2013-02-23 05:36:00,44.0,43.2,30.07,SW,221,1.0,2.0,97,0.00,,,0.17,Wunderground v.1.15,2013-02-23 10:36:00,
2013-02-23 05:42:00,44.0,43.2,30.06,SW,221,0.0,1.0,97,0.00,,,0.17,Wunderground v.1.15,2013-02-23 10:42:00,
2013-02-23 05:48:00,44.1,43.3,30.06,SW,221,0.0,1.0,97,0.00,,,0.17,Wunderground v.1.15,2013-02-23 10:48:00,
2013-02-23 05:54:00,44.3,43.2,30.06,SW,221,0.0,1.0,96,0.00,,,0.17,Wunderground v.1.15,2013-02-23 10:54:00,
2013-02-23 06:00:00,44.4,43.3,30.07,SW,221,0.0,1.0,96,0.00,,,0.17,Wunderground v.1.15,2013-02-23 11:00:00,
2013-02-23 06:06:00,44.5,43.4,30.07,SW,221,0.0,1.0,96,0.00,,,0.17,Wunderground v.1.15,2013-02-23 11:06:00,
2013-02-23 06:12:00,44.7,43.6,30.06,SW,223,0.0,1.0,96,0.00,,,0.17,Wunderground v.1.15,2013-02-23 11:12:00,
2013-02-23 06:18:00,44.9,43.6,30.06,WNW,288,0.0,1.0,95,0.00,,,0.17,Wunderground v.1.15,2013-02-23 11:18:00,
2013-02-23 06:24:00,45.1,43.5,30.05,SSE,165,1.0,2.0,94,0.00,,,0.17,Wunderground v.1.15,2013-02-23 11:24:00,
2013-02-23 06:30:00,44.9,43.6,30.05,SW,219,1.0,1.0,95,0.00,,,0.17,Wunderground v.1.15,2013-02-23 11:30:00,
2013-02-23 06:36:00,44.7,43.4,30.06,SW,219,1.0,1.0,95,0.00,,,0.17,Wunderground v.1.15,2013-02-23 11:36:00,
2013-02-23 06:42:00,44.7,43.6,30.06,SW,219,0.0,1.0,96,0.00,,,0.17,Wunderground v.1.15,2013-02-23 11:42:00,
2013-02-23 06:48:00,44.6,43.5,30.06,SW,219,0.0,1.0,96,0.00,,,0.18,Wunderground v.1.15,2013-02-23 11:48:00,
2013-02-23 06:54:00,44.5,43.4,30.05,SW,219,0.0,1.0,96,0.00,,,0.18,Wunderground v.1.15,2013-02-23 11:54:00,
2013-02-23 07:00:00,44.4,43.3,30.05,SW,219,0.0,1.0,96,0.00,,,0.18,Wunderground v.1.15,2013-02-23 12:00:00,
2013-02-23 07:06:00,44.3,43.2,30.05,SW,219,0.0,1.0,96,0.00,,,0.18,Wunderground v.1.15,2013-02-23 12:06:00,
2013-02-23 07:12:00,44.3,43.5,30.05,NNE,13,0.0,1.0,97,0.00,,,0.18,Wunderground v.1.15,2013-02-23 12:12:00,
2013-02-23 07:18:00,44.4,43.6,30.05,NNE,12,1.0,1.0,97,0.00,,,0.19,Wunderground v.1.15,2013-02-23 12:18:00,
2013-02-23 07:24:00,44.2,43.4,30.05,NNE,18,1.0,2.0,97,0.00,,,0.19,Wunderground v.1.15,2013-02-23 12:24:00,
2013-02-23 07:30:00,43.8,43.0,30.04,NNE,15,1.0,1.0,97,0.05,,,0.20,Wunderground v.1.15,2013-02-23 12:30:00,
2013-02-23 07:36:00,43.8,43.0,30.05,North,9,1.0,1.0,97,0.05,,,0.20,Wunderground v.1.15,2013-02-23 12:36:00,
2013-02-23 07:42:00,43.9,43.4,30.05,NNW,342,1.0,1.0,98,0.04,,,0.20,Wunderground v.1.15,2013-02-23 12:42:00,
2013-02-23 07:48:00,43.9,43.4,30.04,North,357,1.0,1.0,98,0.00,,,0.20,Wunderground v.1.15,2013-02-23 12:48:00,
2013-02-23 07:54:00,44.1,43.6,30.04,North,356,0.0,1.0,98,0.00,,,0.20,Wunderground v.1.15,2013-02-23 12:54:00,
2013-02-23 08:00:00,44.5,44.0,30.05,WSW,240,0.0,1.0,98,0.00,,,0.20,Wunderground v.1.15,2013-02-23 13:00:00,
2013-02-23 08:06:00,44.9,44.4,30.05,WSW,240,0.0,1.0,98,0.00,,,0.20,Wunderground v.1.15,2013-02-23 13:06:00,
2013-02-23 08:12:00,44.8,44.0,30.05,WSW,242,0.0,1.0,97,0.00,,,0.20,Wunderground v.1.15,2013-02-23 13:12:00,
2013-02-23 08:18:00,44.5,43.7,30.05,NNE,13,1.0,1.0,97,0.00,,,0.20,Wunderground v.1.15,2013-02-23 13:18:00,
2013-02-23 08:24:00,44.1,43.3,30.04,NNE,19,1.0,1.0,97,0.00,,,0.21,Wunderground v.1.15,2013-02-23 13:24:00,
2013-02-23 08:30:00,44.0,43.5,30.05,NNE,19,0.0,1.0,98,0.00,,,0.21,Wunderground v.1.15,2013-02-23 13:30:00,
2013-02-23 08:36:00,44.5,44.0,30.05,NNW,334,0.0,1.0,98,0.00,,,0.21,Wunderground v.1.15,2013-02-23 13:36:00,
2013-02-23 08:42:00,44.8,44.3,30.05,NNW,335,0.0,1.0,98,0.00,,,0.21,Wunderground v.1.15,2013-02-23 13:42:00,
2013-02-23 08:48:00,45.0,44.5,30.05,SW,228,1.0,2.0,98,0.00,,,0.21,Wunderground v.1.15,2013-02-23 13:48:00,
2013-02-23 08:54:00,45.2,44.7,30.05,SW,227,1.0,1.0,98,0.00,,,0.22,Wunderground v.1.15,2013-02-23 13:54:00,
2013-02-23 09:00:00,45.3,44.8,30.06,SW,228,0.0,1.0,98,0.00,,,0.22,Wunderground v.1.15,2013-02-23 14:00:00,
2013-02-23 09:06:00,45.3,44.8,30.05,SW,228,0.0,1.0,98,0.00,,,0.22,Wunderground v.1.15,2013-02-23 14:06:00,
2013-02-23 09:12:00,45.1,44.3,30.05,SW,228,0.0,1.0,97,0.00,,,0.22,Wunderground v.1.15,2013-02-23 14:12:00,
2013-02-23 09:18:00,45.1,44.3,30.04,SW,227,0.0,1.0,97,0.00,,,0.22,Wunderground v.1.15,2013-02-23 14:18:00,
2013-02-23 09:24:00,45.2,44.7,30.04,SW,228,0.0,1.0,98,0.00,,,0.22,Wunderground v.1.15,2013-02-23 14:24:00,
2013-02-23 09:30:00,45.4,44.9,30.04,South,180,0.0,1.0,98,0.00,,,0.22,Wunderground v.1.15,2013-02-23 14:30:00,
2013-02-23 09:36:00,45.2,44.4,30.04,SSE,165,0.0,1.0,97,0.00,,,0.22,Wunderground v.1.15,2013-02-23 14:36:00,
2013-02-23 09:42:00,45.4,44.9,30.04,ENE,72,0.0,1.0,98,0.00,,,0.22,Wunderground v.1.15,2013-02-23 14:42:00,
2013-02-23 09:48:00,45.6,45.1,30.03,ENE,61,0.0,1.0,98,0.00,,,0.22,Wunderground v.1.15,2013-02-23 14:48:00,
2013-02-23 09:54:00,46.0,45.5,30.03,NE,49,1.0,1.0,98,0.00,,,0.22,Wunderground v.1.15,2013-02-23 14:54:00,
2013-02-23 10:00:00,46.1,45.6,30.03,NE,47,1.0,1.0,98,0.00,,,0.22,Wunderground v.1.15,2013-02-23 15:00:00,
2013-02-23 10:06:00,46.5,46.0,30.02,NE,52,1.0,3.0,98,0.00,,,0.22,Wunderground v.1.15,2013-02-23 15:06:00,
2013-02-23 10:12:00,46.6,46.1,30.03,NE,56,1.0,1.0,98,0.00,,,0.22,Wunderground v.1.15,2013-02-23 15:12:00,
2013-02-23 10:18:00,46.2,45.4,30.03,ENE,61,1.0,1.0,97,0.00,,,0.22,Wunderground v.1.15,2013-02-23 15:18:00,
2013-02-23 10:24:00,46.0,45.2,30.03,ENE,61,1.0,1.0,97,0.00,,,0.22,Wunderground v.1.15,2013-02-23 15:24:00,
2013-02-23 10:30:00,46.1,45.3,30.02,ENE,61,0.0,1.0,97,0.00,,,0.22,Wunderground v.1.15,2013-02-23 15:30:00,
2013-02-23 10:36:00,46.2,45.4,30.03,ENE,61,0.0,1.0,97,0.00,,,0.22,Wunderground v.1.15,2013-02-23 15:36:00,
2013-02-23 10:42:00,46.1,45.3,30.03,ENE,61,0.0,1.0,97,0.00,,,0.22,Wunderground v.1.15,2013-02-23 15:42:00,
2013-02-23 10:48:00,45.9,45.1,30.02,ENE,62,0.0,1.0,97,0.00,,,0.22,Wunderground v.1.15,2013-02-23 15:48:00,
2013-02-23 10:54:00,45.9,45.1,30.02,SSW,203,0.0,1.0,97,0.00,,,0.22,Wunderground v.1.15,2013-02-23 15:54:00,
2013-02-23 11:00:00,45.7,44.9,30.02,SSW,203,0.0,1.0,97,0.00,,,0.22,Wunderground v.1.15,2013-02-23 16:00:00,
2013-02-23 11:06:00,45.9,45.1,30.01,SSW,194,0.0,1.0,97,0.00,,,0.22,Wunderground v.1.15,2013-02-23 16:06:00,
2013-02-23 11:12:00,46.0,45.2,30.02,South,184,0.0,1.0,97,0.00,,,0.22,Wunderground v.1.15,2013-02-23 16:12:00,
2013-02-23 11:18:00,46.1,45.3,30.02,SE,142,0.0,1.0,97,0.00,,,0.22,Wunderground v.1.15,2013-02-23 16:18:00,
2013-02-23 11:24:00,46.0,45.2,30.02,SE,142,0.0,1.0,97,0.00,,,0.22,Wunderground v.1.15,2013-02-23 16:24:00,
2013-02-23 11:30:00,46.3,45.5,30.02,SE,133,0.0,1.0,97,0.00,,,0.22,Wunderground v.1.15,2013-02-23 16:30:00,
2013-02-23 11:36:00,46.1,45.3,30.02,SE,132,0.0,1.0,97,0.00,,,0.22,Wunderground v.1.15,2013-02-23 16:36:00,
2013-02-23 11:42:00,46.1,45.3,30.02,ESE,117,0.0,1.0,97,0.00,,,0.22,Wunderground v.1.15,2013-02-23 16:42:00,
2013-02-23 11:48:00,45.9,45.1,30.02,ESE,115,0.0,1.0,97,0.00,,,0.22,Wunderground v.1.15,2013-02-23 16:48:00,
2013-02-23 11:54:00,46.3,45.8,30.02,ESE,117,0.0,1.0,98,0.00,,,0.22,Wunderground v.1.15,2013-02-23 16:54:00,
2013-02-23 12:00:00,46.4,45.6,30.02,SSE,158,0.0,1.0,97,0.00,,,0.22,Wunderground v.1.15,2013-02-23 17:00:00,
2013-02-23 12:06:00,46.5,45.7,30.01,SE,146,0.0,1.0,97,0.00,,,0.22,Wunderground v.1.15,2013-02-23 17:06:00,
2013-02-23 12:12:00,46.7,45.9,30.01,SSE,148,0.0,1.0,97,0.00,,,0.22,Wunderground v.1.15,2013-02-23 17:12:00,
2013-02-23 12:18:00,46.9,46.1,30.01,SW,215,0.0,1.0,97,0.00,,,0.22,Wunderground v.1.15,2013-02-23 17:18:00,
2013-02-23 12:24:00,47.4,46.9,29.99,South,173,0.0,1.0,98,0.00,,,0.22,Wunderground v.1.15,2013-02-23 17:24:00,
2013-02-23 12:30:00,47.8,47.0,29.99,ESE,111,0.0,1.0,97,0.00,,,0.22,Wunderground v.1.15,2013-02-23 17:30:00,
2013-02-23 12:36:00,48.2,47.4,29.99,ESE,112,1.0,1.0,97,0.00,,,0.22,Wunderground v.1.15,2013-02-23 17:36:00,
2013-02-23 12:42:00,48.1,46.7,29.99,East,79,0.0,1.0,95,0.00,,,0.22,Wunderground v.1.15,2013-02-23 17:42:00,
2013-02-23 12:48:00,47.5,46.4,29.99,NE,44,1.0,1.0,96,0.00,,,0.22,Wunderground v.1.15,2013-02-23 17:48:00,
2013-02-23 12:54:00,47.2,46.1,29.98,NNE,22,1.0,1.0,96,0.00,,,0.22,Wunderground v.1.15,2013-02-23 17:54:00,
2013-02-23 13:00:00,46.9,46.1,29.98,NE,43,0.0,1.0,97,0.00,,,0.22,Wunderground v.1.15,2013-02-23 18:00:00,
2013-02-23 13:06:00,46.6,45.8,29.98,ENE,60,1.0,2.0,97,0.00,,,0.22,Wunderground v.1.15,2013-02-23 18:06:00,
2013-02-23 13:12:00,46.4,45.6,29.98,NE,54,1.0,1.0,97,0.00,,,0.22,Wunderground v.1.15,2013-02-23 18:12:00,
2013-02-23 13:18:00,46.5,46.0,29.98,NE,53,0.0,1.0,98,0.00,,,0.22,Wunderground v.1.15,2013-02-23 18:18:00,
2013-02-23 13:24:00,46.7,46.2,29.98,NE,54,0.0,1.0,98,0.00,,,0.22,Wunderground v.1.15,2013-02-23 18:24:00,
2013-02-23 13:30:00,47.0,46.5,29.97,NE,54,0.0,1.0,98,0.00,,,0.22,Wunderground v.1.15,2013-02-23 18:30:00,
2013-02-23 13:36:00,47.2,46.7,29.98,NE,54,0.0,1.0,98,0.00,,,0.22,Wunderground v.1.15,2013-02-23 18:36:00,
2013-02-23 13:42:00,47.3,46.8,29.98,NE,54,0.0,1.0,98,0.00,,,0.22,Wunderground v.1.15,2013-02-23 18:42:00,
2013-02-23 13:48:00,47.2,46.7,29.97,SSE,160,0.0,1.0,98,0.00,,,0.22,Wunderground v.1.15,2013-02-23 18:48:00,
2013-02-23 13:54:00,47.1,46.3,29.97,SE,134,0.0,1.0,97,0.00,,,0.22,Wunderground v.1.15,2013-02-23 18:54:00,
2013-02-23 14:00:00,47.0,46.2,29.97,SE,134,0.0,1.0,97,0.00,,,0.22,Wunderground v.1.15,2013-02-23 19:00:00,
2013-02-23 14:06:00,47.1,46.6,29.96,SE,134,0.0,1.0,98,0.00,,,0.22,Wunderground v.1.15,2013-02-23 19:06:00,
2013-02-23 14:12:00,47.2,46.7,29.96,SE,134,0.0,1.0,98,0.00,,,0.22,Wunderground v.1.15,2013-02-23 19:12:00,
2013-02-23 14:18:00,47.3,46.8,29.96,SE,134,0.0,1.0,98,0.00,,,0.22,Wunderground v.1.15,2013-02-23 19:18:00,
2013-02-23 14:24:00,47.4,46.9,29.96,SE,135,0.0,1.0,98,0.00,,,0.22,Wunderground v.1.15,2013-02-23 19:24:00,
2013-02-23 14:30:00,47.4,46.6,29.96,SE,145,0.0,1.0,97,0.00,,,0.22,Wunderground v.1.15,2013-02-23 19:30:00,
2013-02-23 14:36:00,47.3,46.5,29.96,SSW,210,0.0,1.0,97,0.00,,,0.22,Wunderground v.1.15,2013-02-23 19:36:00,
2013-02-23 14:42:00,47.4,46.6,29.96,SSE,158,0.0,1.0,97,0.00,,,0.22,Wunderground v.1.15,2013-02-23 19:42:00,
2013-02-23 14:48:00,47.2,46.4,29.96,SSE,159,0.0,1.0,97,0.00,,,0.22,Wunderground v.1.15,2013-02-23 19:48:00,
2013-02-23 14:54:00,47.2,46.4,29.96,SE,126,0.0,1.0,97,0.00,,,0.22,Wunderground v.1.15,2013-02-23 19:54:00,
2013-02-23 15:00:00,47.4,46.9,29.96,SE,124,0.0,1.0,98,0.00,,,0.22,Wunderground v.1.15,2013-02-23 20:00:00,
2013-02-23 15:06:00,47.5,47.0,29.96,SE,124,0.0,1.0,98,0.00,,,0.22,Wunderground v.1.15,2013-02-23 20:06:00,
2013-02-23 15:12:00,47.3,46.5,29.95,SE,126,0.0,1.0,97,0.00,,,0.22,Wunderground v.1.15,2013-02-23 20:12:00,
2013-02-23 15:18:00,47.0,46.2,29.95,SE,124,0.0,1.0,97,0.00,,,0.22,Wunderground v.1.15,2013-02-23 20:18:00,
2013-02-23 15:24:00,46.7,45.9,29.95,SE,124,0.0,1.0,97,0.00,,,0.22,Wunderground v.1.15,2013-02-23 20:24:00,
2013-02-23 15:30:00,46.5,45.7,29.95,SE,124,0.0,1.0,97,0.00,,,0.22,Wunderground v.1.15,2013-02-23 20:30:00,
2013-02-23 15:36:00,46.4,45.6,29.95,SE,124,0.0,1.0,97,0.00,,,0.22,Wunderground v.1.15,2013-02-23 20:36:00,
2013-02-23 15:42:00,46.2,45.7,29.95,ENE,66,0.0,1.0,98,0.00,,,0.22,Wunderground v.1.15,2013-02-23 20:42:00,
2013-02-23 15:48:00,46.1,45.6,29.95,ENE,67,0.0,1.0,98,0.00,,,0.22,Wunderground v.1.15,2013-02-23 20:48:00,
2013-02-23 15:54:00,46.0,45.5,29.96,ENE,66,0.0,1.0,98,0.00,,,0.22,Wunderground v.1.15,2013-02-23 20:54:00,
2013-02-23 16:00:00,46.0,45.5,29.96,ENE,66,0.0,1.0,98,0.00,,,0.22,Wunderground v.1.15,2013-02-23 21:00:00,
2013-02-23 16:06:00,46.0,45.5,29.95,ENE,66,0.0,1.0,98,0.00,,,0.22,Wunderground v.1.15,2013-02-23 21:06:00,
2013-02-23 16:12:00,46.1,45.6,29.95,ENE,67,0.0,1.0,98,0.00,,,0.22,Wunderground v.1.15,2013-02-23 21:12:00,
2013-02-23 16:18:00,46.3,45.8,29.96,ENE,66,0.0,1.0,98,0.00,,,0.22,Wunderground v.1.15,2013-02-23 21:18:00,
2013-02-23 16:24:00,46.5,46.2,29.95,ENE,66,0.0,1.0,99,0.00,,,0.22,Wunderground v.1.15,2013-02-23 21:24:00,
2013-02-23 16:30:00,46.7,46.4,29.94,ENE,66,0.0,1.0,99,0.00,,,0.22,Wunderground v.1.15,2013-02-23 21:30:00,
2013-02-23 16:36:00,47.0,46.7,29.94,ENE,66,0.0,1.0,99,0.00,,,0.22,Wunderground v.1.15,2013-02-23 21:36:00,
2013-02-23 16:42:00,47.3,47.0,29.94,ENE,66,0.0,1.0,99,0.00,,,0.22,Wunderground v.1.15,2013-02-23 21:42:00,
2013-02-23 16:48:00,47.2,46.9,29.94,ENE,66,0.0,1.0,99,0.00,,,0.22,Wunderground v.1.15,2013-02-23 21:48:00,
2013-02-23 16:54:00,46.7,46.2,29.94,NNE,24,0.0,1.0,98,0.00,,,0.22,Wunderground v.1.15,2013-02-23 21:54:00,
2013-02-23 17:00:00,46.4,45.9,29.93,NNE,27,1.0,2.0,98,0.00,,,0.22,Wunderground v.1.15,2013-02-23 22:00:00,
2013-02-23 17:06:00,46.2,45.7,29.93,North,360,1.0,2.0,98,0.00,,,0.22,Wunderground v.1.15,2013-02-23 22:06:00,
2013-02-23 17:12:00,46.1,45.6,29.94,North,359,1.0,1.0,98,0.00,,,0.22,Wunderground v.1.15,2013-02-23 22:12:00,
2013-02-23 17:18:00,46.1,45.6,29.93,NNE,20,1.0,1.0,98,0.00,,,0.22,Wunderground v.1.15,2013-02-23 22:18:00,
2013-02-23 17:24:00,46.1,45.8,29.93,NNE,22,1.0,1.0,99,0.00,,,0.22,Wunderground v.1.15,2013-02-23 22:24:00,
2013-02-23 17:30:00,45.9,45.6,29.93,NNE,20,1.0,1.0,99,0.00,,,0.22,Wunderground v.1.15,2013-02-23 22:30:00,
2013-02-23 17:36:00,45.8,45.5,29.93,NNE,20,1.0,1.0,99,0.00,,,0.22,Wunderground v.1.15,2013-02-23 22:36:00,
2013-02-23 17:42:00,45.7,45.4,29.93,North,9,1.0,1.0,99,0.00,,,0.22,Wunderground v.1.15,2013-02-23 22:42:00,
2013-02-23 17:48:00,45.6,45.3,29.92,NNW,333,1.0,1.0,99,0.00,,,0.22,Wunderground v.1.15,2013-02-23 22:48:00,
2013-02-23 17:54:00,45.5,45.2,29.92,North,352,1.0,1.0,99,0.00,,,0.22,Wunderground v.1.15,2013-02-23 22:54:00,
2013-02-23 18:00:00,45.5,45.2,29.92,North,6,1.0,1.0,99,0.00,,,0.22,Wunderground v.1.15,2013-02-23 23:00:00,
2013-02-23 18:06:00,45.4,45.1,29.92,NNE,12,1.0,2.0,99,0.00,,,0.22,Wunderground v.1.15,2013-02-23 23:06:00,
2013-02-23 18:12:00,45.3,45.0,29.91,NNE,15,1.0,2.0,99,0.00,,,0.22,Wunderground v.1.15,2013-02-23 23:12:00,
2013-02-23 18:18:00,45.3,45.0,29.91,NNE,15,1.0,2.0,99,0.00,,,0.22,Wunderground v.1.15,2013-02-23 23:18:00,
2013-02-23 18:24:00,45.2,44.9,29.92,NE,36,1.0,1.0,99,0.00,,,0.22,Wunderground v.1.15,2013-02-23 23:24:00,
2013-02-23 18:30:00,45.2,44.9,29.92,North,9,1.0,1.0,99,0.00,,,0.22,Wunderground v.1.15,2013-02-23 23:30:00,
2013-02-23 18:36:00,45.2,44.9,29.92,ENE,63,1.0,1.0,99,0.00,,,0.22,Wunderground v.1.15,2013-02-23 23:36:00,
2013-02-23 18:42:00,45.1,44.8,29.92,NNE,30,1.0,1.0,99,0.00,,,0.22,Wunderground v.1.15,2013-02-23 23:42:00,
2013-02-23 18:48:00,45.1,44.8,29.92,NE,37,1.0,1.0,99,0.00,,,0.22,Wunderground v.1.15,2013-02-23 23:48:00,
2013-02-23 18:54:00,45.1,44.8,29.91,NNE,27,1.0,2.0,99,0.00,,,0.22,Wunderground v.1.15,2013-02-23 23:54:00,
2013-02-23 19:00:00,44.9,44.6,29.92,North,6,1.0,1.0,99,0.00,,,0.22,Wunderground v.1.15,2013-02-24 00:00:00,
2013-02-23 19:06:00,44.9,44.6,29.92,NNE,29,1.0,1.0,99,0.00,,,0.22,Wunderground v.1.15,2013-02-24 00:06:00,
2013-02-23 19:12:00,44.9,44.6,29.92,ENE,78,1.0,1.0,99,0.00,,,0.22,Wunderground v.1.15,2013-02-24 00:12:00,
2013-02-23 19:18:00,44.8,44.5,29.92,North,11,1.0,1.0,99,0.00,,,0.22,Wunderground v.1.15,2013-02-24 00:18:00,
2013-02-23 19:24:00,44.7,44.4,29.92,NE,36,1.0,2.0,99,0.00,,,0.22,Wunderground v.1.15,2013-02-24 00:24:00,
2013-02-23 19:30:00,44.7,44.4,29.92,NNE,33,1.0,1.0,99,0.00,,,0.22,Wunderground v.1.15,2013-02-24 00:30:00,
2013-02-23 19:36:00,44.7,44.4,29.91,NNE,33,0.0,1.0,99,0.00,,,0.22,Wunderground v.1.15,2013-02-24 00:36:00,
2013-02-23 19:42:00,44.6,44.3,29.92,NNE,32,0.0,1.0,99,0.00,,,0.22,Wunderground v.1.15,2013-02-24 00:42:00,
2013-02-23 19:48:00,44.5,44.2,29.92,NNE,32,0.0,1.0,99,0.00,,,0.22,Wunderground v.1.15,2013-02-24 00:48:00,
2013-02-23 19:54:00,44.6,44.3,29.92,WNW,300,0.0,1.0,99,0.00,,,0.22,Wunderground v.1.15,2013-02-24 00:54:00,
2013-02-23 20:00:00,44.5,44.2,29.92,WNW,300,0.0,1.0,99,0.00,,,0.22,Wunderground v.1.15,2013-02-24 01:00:00,
2013-02-23 20:06:00,44.3,44.0,29.92,WNW,300,0.0,1.0,99,0.00,,,0.22,Wunderground v.1.15,2013-02-24 01:06:00,
2013-02-23 20:12:00,44.4,44.1,29.92,SW,225,0.0,1.0,99,0.00,,,0.22,Wunderground v.1.15,2013-02-24 01:12:00,
2013-02-23 20:18:00,44.3,44.0,29.92,SW,225,0.0,1.0,99,0.00,,,0.22,Wunderground v.1.15,2013-02-24 01:18:00,
2013-02-23 20:24:00,44.3,44.0,29.92,SW,225,0.0,1.0,99,0.00,,,0.22,Wunderground v.1.15,2013-02-24 01:24:00,
2013-02-23 20:30:00,44.4,44.1,29.92,SW,222,0.0,1.0,99,0.00,,,0.22,Wunderground v.1.15,2013-02-24 01:30:00,
2013-02-23 20:36:00,44.4,44.1,29.92,SSW,211,0.0,1.0,99,0.00,,,0.22,Wunderground v.1.15,2013-02-24 01:36:00,
2013-02-23 20:42:00,44.2,43.9,29.92,SSW,211,0.0,1.0,99,0.00,,,0.22,Wunderground v.1.15,2013-02-24 01:42:00,
2013-02-23 20:48:00,44.2,43.9,29.92,SSW,193,0.0,1.0,99,0.00,,,0.22,Wunderground v.1.15,2013-02-24 01:48:00,
2013-02-23 20:54:00,44.0,43.7,29.92,South,191,0.0,1.0,99,0.00,,,0.22,Wunderground v.1.15,2013-02-24 01:54:00,
2013-02-23 21:00:00,43.9,43.6,29.92,South,179,0.0,1.0,99,0.00,,,0.22,Wunderground v.1.15,2013-02-24 02:00:00,
2013-02-23 21:06:00,43.7,43.4,29.92,South,178,0.0,1.0,99,0.00,,,0.22,Wunderground v.1.15,2013-02-24 02:06:00,
2013-02-23 21:12:00,43.5,43.2,29.92,South,181,0.0,1.0,99,0.00,,,0.22,Wunderground v.1.15,2013-02-24 02:12:00,
2013-02-23 21:18:00,43.5,43.2,29.93,SW,215,0.0,1.0,99,0.00,,,0.22,Wunderground v.1.15,2013-02-24 02:18:00,
2013-02-23 21:24:00,43.6,43.3,29.93,SW,227,1.0,1.0,99,0.00,,,0.22,Wunderground v.1.15,2013-02-24 02:24:00,
2013-02-23 21:30:00,43.8,43.5,29.93,South,177,1.0,1.0,99,0.00,,,0.22,Wunderground v.1.15,2013-02-24 02:30:00,
2013-02-23 21:36:00,43.7,43.4,29.93,South,179,0.0,1.0,99,0.00,,,0.22,Wunderground v.1.15,2013-02-24 02:36:00,
2013-02-23 21:42:00,43.5,43.2,29.94,SSE,153,0.0,1.0,99,0.00,,,0.22,Wunderground v.1.15,2013-02-24 02:42:00,
2013-02-23 21:48:00,43.3,43.0,29.94,SSE,153,0.0,1.0,99,0.00,,,0.22,Wunderground v.1.15,2013-02-24 02:48:00,
2013-02-23 21:54:00,43.2,42.9,29.93,SSE,153,0.0,1.0,99,0.00,,,0.22,Wunderground v.1.15,2013-02-24 02:54:00,
2013-02-23 22:00:00,42.9,42.6,29.94,SSE,153,0.0,1.0,99,0.00,,,0.22,Wunderground v.1.15,2013-02-24 03:00:00,
2013-02-23 22:06:00,42.4,42.1,29.94,SSE,153,0.0,1.0,99,0.00,,,0.22,Wunderground v.1.15,2013-02-24 03:06:00,
2013-02-23 22:12:00,42.0,41.7,29.94,SSE,153,0.0,1.0,99,0.00,,,0.22,Wunderground v.1.15,2013-02-24 03:12:00,
2013-02-23 22:18:00,41.7,41.4,29.93,SSE,153,0.0,1.0,99,0.00,,,0.22,Wunderground v.1.15,2013-02-24 03:18:00,
2013-02-23 22:24:00,41.5,41.2,29.93,SSE,150,0.0,1.0,99,0.00,,,0.22,Wunderground v.1.15,2013-02-24 03:24:00,
2013-02-23 22:30:00,41.2,40.9,29.94,NW,318,0.0,1.0,99,0.00,,,0.22,Wunderground v.1.15,2013-02-24 03:30:00,
2013-02-23 22:36:00,40.9,40.6,29.93,NW,307,0.0,1.0,99,0.00,,,0.22,Wunderground v.1.15,2013-02-24 03:36:00,
2013-02-23 22:42:00,40.5,40.0,29.94,NW,309,0.0,1.0,98,0.00,,,0.22,Wunderground v.1.15,2013-02-24 03:42:00,
2013-02-23 22:48:00,40.2,39.7,29.94,NNW,329,1.0,1.0,98,0.00,,,0.22,Wunderground v.1.15,2013-02-24 03:48:00,
2013-02-23 22:54:00,40.1,39.8,29.94,North,355,1.0,2.0,99,0.00,,,0.22,Wunderground v.1.15,2013-02-24 03:54:00,
2013-02-23 23:00:00,39.8,39.3,29.94,NNE,26,2.0,2.0,98,0.00,,,0.22,Wunderground v.1.15,2013-02-24 04:00:00,
2013-02-23 23:06:00,39.3,38.5,29.94,NNE,24,2.0,2.0,97,0.00,,,0.22,Wunderground v.1.15,2013-02-24 04:06:00,
2013-02-23 23:12:00,39.1,38.3,29.95,NE,48,1.0,1.0,97,0.00,,,0.22,Wunderground v.1.15,2013-02-24 04:12:00,
2013-02-23 23:18:00,38.7,37.7,29.95,NNW,347,1.0,1.0,96,0.00,,,0.22,Wunderground v.1.15,2013-02-24 04:18:00,
2013-02-23 23:24:00,38.7,37.7,29.95,NE,43,1.0,2.0,96,0.00,,,0.22,Wunderground v.1.15,2013-02-24 04:24:00,
2013-02-23 23:30:00,38.5,37.5,29.95,NNW,332,1.0,1.0,96,0.00,,,0.22,Wunderground v.1.15,2013-02-24 04:30:00,
2013-02-23 23:36:00,38.7,37.1,29.95,SW,232,2.0,2.0,94,0.00,,,0.22,Wunderground v.1.15,2013-02-24 04:36:00,
2013-02-23 23:42:00,38.5,36.9,29.94,WSW,248,1.0,1.0,94,0.00,,,0.22,Wunderground v.1.15,2013-02-24 04:42:00,
2013-02-23 23:48:00,38.4,36.8,29.94,WSW,255,0.0,1.0,94,0.00,,,0.22,Wunderground v.1.15,2013-02-24 04:48:00,
2013-02-23 23:54:00,38.3,36.7,29.95,WSW,256,0.0,1.0,94,0.00,,,0.22,Wunderground v.1.15,2013-02-24 04:54:00,